sensor_id;sensor_type;location;lat;lon;timestamp;temperature;humidity
10662;DHT22;5379;51.034;7.006;2023-04-02T00:00:03;13.30;99.90
10662;DHT22;5379;51.034;7.006;2023-04-02T04:31:50;9.40;99.90
10662;DHT22;5379;51.034;7.006;2023-04-02T04:34:24;9.20;99.90
10662;DHT22;5379;51.034;7.006;2023-04-02T04:36:57;9.20;99.90
10662;DHT22;5379;51.034;7.006;2023-04-02T04:39:39;9.30;99.90
10662;DHT22;5379;51.034;7.006;2023-04-02T04:42:16;9.60;99.90
10662;DHT22;5379;51.034;7.006;2023-04-02T04:44:49;9.20;99.90
10662;DHT22;5379;51.034;7.006;2023-04-02T04:47:22;9.30;99.90
10662;DHT22;5379;51.034;7.006;2023-04-02T04:49:53;9.50;99.90
10662;DHT22;5379;51.034;7.006;2023-04-02T04:52:25;9.70;99.90
10662;DHT22;5379;51.034;7.006;2023-04-02T04:54:52;9.30;99.90
10662;DHT22;5379;51.034;7.006;2023-04-02T04:57:28;9.10;99.90
10662;DHT22;5379;51.034;7.006;2023-04-02T04:59:58;9.00;99.90
10662;DHT22;5379;51.034;7.006;2023-04-02T05:02:32;8.90;99.90
10662;DHT22;5379;51.034;7.006;2023-04-02T05:05:13;9.30;99.90
10662;DHT22;5379;51.034;7.006;2023-04-02T05:07:44;9.10;99.90
10662;DHT22;5379;51.034;7.006;2023-04-02T05:10:17;9.10;99.90
10662;DHT22;5379;51.034;7.006;2023-04-02T05:12:49;9.20;99.90
10662;DHT22;5379;51.034;7.006;2023-04-02T05:15:20;9.40;99.90
10662;DHT22;5379;51.034;7.006;2023-04-02T05:18:07;9.50;99.90
10662;DHT22;5379;51.034;7.006;2023-04-02T05:20:41;9.70;99.90
10662;DHT22;5379;51.034;7.006;2023-04-02T05:23:14;9.60;99.90
10662;DHT22;5379;51.034;7.006;2023-04-02T05:25:51;9.40;99.90
10662;DHT22;5379;51.034;7.006;2023-04-02T05:28:24;9.20;99.90
10662;DHT22;5379;51.034;7.006;2023-04-02T05:30:58;9.20;99.90
10662;DHT22;5379;51.034;7.006;2023-04-02T05:33:30;9.20;99.90
10662;DHT22;5379;51.034;7.006;2023-04-02T05:35:59;9.40;99.90
10662;DHT22;5379;51.034;7.006;2023-04-02T05:38:28;9.10;99.90
10662;DHT22;5379;51.034;7.006;2023-04-02T05:41:00;9.20;99.90
10662;DHT22;5379;51.034;7.006;2023-04-02T05:43:30;9.20;99.90
10662;DHT22;5379;51.034;7.006;2023-04-02T05:46:01;9.20;99.90
10662;DHT22;5379;51.034;7.006;2023-04-02T05:48:33;9.20;99.90
10662;DHT22;5379;51.034;7.006;2023-04-02T05:51:05;8.90;99.90
10662;DHT22;5379;51.034;7.006;2023-04-02T05:53:34;8.80;99.90
10662;DHT22;5379;51.034;7.006;2023-04-02T05:56:06;9.00;99.90
10662;DHT22;5379;51.034;7.006;2023-04-02T05:58:40;9.10;99.90
10662;DHT22;5379;51.034;7.006;2023-04-02T06:01:19;9.10;99.90
10662;DHT22;5379;51.034;7.006;2023-04-02T06:03:54;8.90;99.90
10662;DHT22;5379;51.034;7.006;2023-04-02T06:06:32;8.80;99.90
10662;DHT22;5379;51.034;7.006;2023-04-02T06:09:06;8.90;99.90
10662;DHT22;5379;51.034;7.006;2023-04-02T06:11:39;8.90;99.90
10662;DHT22;5379;51.034;7.006;2023-04-02T06:14:09;8.70;99.90
10662;DHT22;5379;51.034;7.006;2023-04-02T06:16:37;8.70;99.90
10662;DHT22;5379;51.034;7.006;2023-04-02T06:19:09;8.40;99.90
10662;DHT22;5379;51.034;7.006;2023-04-02T06:21:43;8.40;99.90
10662;DHT22;5379;51.034;7.006;2023-04-02T06:24:13;8.30;99.90
10662;DHT22;5379;51.034;7.006;2023-04-02T06:26:43;8.30;99.90
10662;DHT22;5379;51.034;7.006;2023-04-02T06:29:14;8.30;99.90
10662;DHT22;5379;51.034;7.006;2023-04-02T06:31:45;8.30;99.90
10662;DHT22;5379;51.034;7.006;2023-04-02T06:34:17;8.30;99.90
10662;DHT22;5379;51.034;7.006;2023-04-02T06:36:44;8.70;99.90
10662;DHT22;5379;51.034;7.006;2023-04-02T06:39:17;8.90;99.90
10662;DHT22;5379;51.034;7.006;2023-04-02T06:41:44;8.60;99.90
10662;DHT22;5379;51.034;7.006;2023-04-02T06:44:15;8.60;99.90
10662;DHT22;5379;51.034;7.006;2023-04-02T06:46:47;8.50;99.90
10662;DHT22;5379;51.034;7.006;2023-04-02T06:49:20;8.70;99.90
10662;DHT22;5379;51.034;7.006;2023-04-02T06:51:52;8.30;99.90
10662;DHT22;5379;51.034;7.006;2023-04-02T06:54:20;8.40;99.90
10662;DHT22;5379;51.034;7.006;2023-04-02T06:56:48;8.10;99.90
10662;DHT22;5379;51.034;7.006;2023-04-02T06:59:16;8.10;99.90
10662;DHT22;5379;51.034;7.006;2023-04-02T07:01:46;8.00;99.90
10662;DHT22;5379;51.034;7.006;2023-04-02T07:04:16;8.40;99.90
10662;DHT22;5379;51.034;7.006;2023-04-02T07:06:43;8.30;99.90
10662;DHT22;5379;51.034;7.006;2023-04-02T07:11:38;8.60;99.90
10662;DHT22;5379;51.034;7.006;2023-04-02T07:14:05;8.40;99.90
10662;DHT22;5379;51.034;7.006;2023-04-02T07:16:33;8.60;99.90
10662;DHT22;5379;51.034;7.006;2023-04-02T07:19:01;8.80;99.90
10662;DHT22;5379;51.034;7.006;2023-04-02T07:21:30;8.50;99.90
10662;DHT22;5379;51.034;7.006;2023-04-02T07:23:57;8.30;99.90
10662;DHT22;5379;51.034;7.006;2023-04-02T07:26:25;8.40;99.90
10662;DHT22;5379;51.034;7.006;2023-04-02T07:28:52;8.10;99.90
10662;DHT22;5379;51.034;7.006;2023-04-02T07:31:21;8.50;99.90
10662;DHT22;5379;51.034;7.006;2023-04-02T07:33:49;8.40;99.90
10662;DHT22;5379;51.034;7.006;2023-04-02T07:36:18;8.10;99.90
10662;DHT22;5379;51.034;7.006;2023-04-02T07:38:47;8.20;99.90
10662;DHT22;5379;51.034;7.006;2023-04-02T07:41:15;8.50;99.90
10662;DHT22;5379;51.034;7.006;2023-04-02T07:43:43;8.50;99.90
10662;DHT22;5379;51.034;7.006;2023-04-02T07:46:10;8.70;99.90
10662;DHT22;5379;51.034;7.006;2023-04-02T07:48:39;8.80;99.90
10662;DHT22;5379;51.034;7.006;2023-04-02T07:51:14;8.60;99.90
10662;DHT22;5379;51.034;7.006;2023-04-02T07:53:41;8.20;99.90
10662;DHT22;5379;51.034;7.006;2023-04-02T07:56:13;8.30;99.90
10662;DHT22;5379;51.034;7.006;2023-04-02T07:58:41;8.50;99.90
10662;DHT22;5379;51.034;7.006;2023-04-02T08:01:16;8.40;99.90
10662;DHT22;5379;51.034;7.006;2023-04-02T08:03:44;8.80;99.90
10662;DHT22;5379;51.034;7.006;2023-04-02T08:06:12;8.80;99.90
10662;DHT22;5379;51.034;7.006;2023-04-02T08:08:39;8.70;99.90
10662;DHT22;5379;51.034;7.006;2023-04-02T08:11:06;8.70;99.90
10662;DHT22;5379;51.034;7.006;2023-04-02T08:13:35;8.40;99.90
10662;DHT22;5379;51.034;7.006;2023-04-02T08:16:04;8.50;99.90
10662;DHT22;5379;51.034;7.006;2023-04-02T08:20:59;8.60;99.90
10662;DHT22;5379;51.034;7.006;2023-04-02T08:23:26;8.30;99.90
10662;DHT22;5379;51.034;7.006;2023-04-02T08:25:54;8.40;99.90
10662;DHT22;5379;51.034;7.006;2023-04-02T08:28:21;8.70;99.90
10662;DHT22;5379;51.034;7.006;2023-04-02T08:30:50;8.90;99.90
10662;DHT22;5379;51.034;7.006;2023-04-02T08:33:17;8.60;99.90
10662;DHT22;5379;51.034;7.006;2023-04-02T08:35:45;8.80;99.90
10662;DHT22;5379;51.034;7.006;2023-04-02T08:38:14;8.70;99.90
10662;DHT22;5379;51.034;7.006;2023-04-02T08:40:43;9.00;99.90
10662;DHT22;5379;51.034;7.006;2023-04-02T08:43:48;8.80;99.90
10662;DHT22;5379;51.034;7.006;2023-04-02T08:46:25;8.80;99.90
10662;DHT22;5379;51.034;7.006;2023-04-02T08:48:55;8.80;99.90
10662;DHT22;5379;51.034;7.006;2023-04-02T08:51:24;8.80;99.90
10662;DHT22;5379;51.034;7.006;2023-04-02T08:53:54;8.80;99.90
10662;DHT22;5379;51.034;7.006;2023-04-02T08:56:26;8.50;99.90
10662;DHT22;5379;51.034;7.006;2023-04-02T08:58:55;8.40;99.90
10662;DHT22;5379;51.034;7.006;2023-04-02T09:01:35;8.50;99.90
10662;DHT22;5379;51.034;7.006;2023-04-02T09:04:13;9.10;99.90
10662;DHT22;5379;51.034;7.006;2023-04-02T09:06:41;9.50;99.90
10662;DHT22;5379;51.034;7.006;2023-04-02T09:09:09;9.40;99.90
10662;DHT22;5379;51.034;7.006;2023-04-02T09:11:43;9.20;99.90
10662;DHT22;5379;51.034;7.006;2023-04-02T09:14:17;8.70;99.90
10662;DHT22;5379;51.034;7.006;2023-04-02T09:16:49;9.10;99.90
10662;DHT22;5379;51.034;7.006;2023-04-02T09:19:19;9.50;99.90
10662;DHT22;5379;51.034;7.006;2023-04-02T09:22:08;9.70;99.90
10662;DHT22;5379;51.034;7.006;2023-04-02T09:24:42;9.70;99.90
10662;DHT22;5379;51.034;7.006;2023-04-02T09:27:16;9.40;99.90
10662;DHT22;5379;51.034;7.006;2023-04-02T09:29:45;8.90;99.90
10662;DHT22;5379;51.034;7.006;2023-04-02T09:32:32;8.70;99.90
10662;DHT22;5379;51.034;7.006;2023-04-02T09:35:10;8.80;99.90
10662;DHT22;5379;51.034;7.006;2023-04-02T09:37:38;9.10;99.90
10662;DHT22;5379;51.034;7.006;2023-04-02T09:40:24;9.10;99.90
10662;DHT22;5379;51.034;7.006;2023-04-02T09:43:03;8.70;99.90
10662;DHT22;5379;51.034;7.006;2023-04-02T09:45:31;8.50;99.90
10662;DHT22;5379;51.034;7.006;2023-04-02T09:47:59;8.60;99.90
10662;DHT22;5379;51.034;7.006;2023-04-02T09:50:28;8.70;99.90
10662;DHT22;5379;51.034;7.006;2023-04-02T09:52:56;8.60;99.90
10662;DHT22;5379;51.034;7.006;2023-04-02T09:55:24;9.00;99.90
10662;DHT22;5379;51.034;7.006;2023-04-02T09:58:09;9.30;99.90
10662;DHT22;5379;51.034;7.006;2023-04-02T10:00:37;9.30;99.90
10662;DHT22;5379;51.034;7.006;2023-04-02T10:03:20;9.30;99.90
10662;DHT22;5379;51.034;7.006;2023-04-02T10:06:03;9.00;99.90
10662;DHT22;5379;51.034;7.006;2023-04-02T10:08:31;8.80;99.90
10662;DHT22;5379;51.034;7.006;2023-04-02T10:11:00;8.80;99.90
10662;DHT22;5379;51.034;7.006;2023-04-02T10:13:30;8.90;99.90
10662;DHT22;5379;51.034;7.006;2023-04-02T10:16:00;9.40;99.90
10662;DHT22;5379;51.034;7.006;2023-04-02T10:18:39;9.80;99.90
10662;DHT22;5379;51.034;7.006;2023-04-02T10:21:10;9.70;99.90
10662;DHT22;5379;51.034;7.006;2023-04-02T10:23:38;9.30;99.90
10662;DHT22;5379;51.034;7.006;2023-04-02T10:29:12;8.90;99.90
10662;DHT22;5379;51.034;7.006;2023-04-02T10:31:47;9.20;99.90
10662;DHT22;5379;51.034;7.006;2023-04-02T10:34:22;9.00;99.90
10662;DHT22;5379;51.034;7.006;2023-04-02T10:36:53;9.00;99.90
10662;DHT22;5379;51.034;7.006;2023-04-02T10:39:24;8.90;99.90
10662;DHT22;5379;51.034;7.006;2023-04-02T10:41:59;9.10;99.90
10662;DHT22;5379;51.034;7.006;2023-04-02T10:44:42;9.20;99.90
10662;DHT22;5379;51.034;7.006;2023-04-02T10:47:24;8.90;99.90
10662;DHT22;5379;51.034;7.006;2023-04-02T10:50:06;8.60;99.90
10662;DHT22;5379;51.034;7.006;2023-04-02T10:52:40;8.50;99.90
10662;DHT22;5379;51.034;7.006;2023-04-02T10:55:14;8.60;99.90
10662;DHT22;5379;51.034;7.006;2023-04-02T10:57:44;8.80;99.90
10662;DHT22;5379;51.034;7.006;2023-04-02T11:00:21;8.80;99.90
10662;DHT22;5379;51.034;7.006;2023-04-02T11:02:53;9.10;99.90
10662;DHT22;5379;51.034;7.006;2023-04-02T11:05:28;9.40;99.90
10662;DHT22;5379;51.034;7.006;2023-04-02T11:08:02;9.20;99.90
10662;DHT22;5379;51.034;7.006;2023-04-02T11:10:33;7.90;99.90
10662;DHT22;5379;51.034;7.006;2023-04-02T11:13:06;9.50;99.90
10662;DHT22;5379;51.034;7.006;2023-04-02T11:15:35;9.40;99.90
10662;DHT22;5379;51.034;7.006;2023-04-02T11:18:03;9.30;99.90
10662;DHT22;5379;51.034;7.006;2023-04-02T11:20:55;9.20;99.90
10662;DHT22;5379;51.034;7.006;2023-04-02T11:23:27;9.50;99.90
10662;DHT22;5379;51.034;7.006;2023-04-02T11:29:17;9.80;99.90
10662;DHT22;5379;51.034;7.006;2023-04-02T11:31:46;9.30;99.90
10662;DHT22;5379;51.034;7.006;2023-04-02T11:34:55;9.90;99.90
10662;DHT22;5379;51.034;7.006;2023-04-02T11:37:07;10.00;99.90
10662;DHT22;5379;51.034;7.006;2023-04-02T11:39:45;10.00;99.90
10662;DHT22;5379;51.034;7.006;2023-04-02T11:42:28;10.30;99.90
10662;DHT22;5379;51.034;7.006;2023-04-02T11:44:58;10.40;99.90
10662;DHT22;5379;51.034;7.006;2023-04-02T11:47:27;10.30;99.90
10662;DHT22;5379;51.034;7.006;2023-04-02T11:50:05;9.80;99.90
10662;DHT22;5379;51.034;7.006;2023-04-02T11:52:36;9.30;99.90
10662;DHT22;5379;51.034;7.006;2023-04-02T11:55:28;9.20;99.90
10662;DHT22;5379;51.034;7.006;2023-04-02T12:07:24;9.30;99.90
10662;DHT22;5379;51.034;7.006;2023-04-02T12:09:55;9.50;99.90
10662;DHT22;5379;51.034;7.006;2023-04-02T12:12:26;9.60;99.90
10662;DHT22;5379;51.034;7.006;2023-04-02T12:14:55;9.60;99.90
10662;DHT22;5379;51.034;7.006;2023-04-02T12:17:29;10.10;99.90
10662;DHT22;5379;51.034;7.006;2023-04-02T12:19:58;9.80;99.90
10662;DHT22;5379;51.034;7.006;2023-04-02T12:22:27;9.70;99.90
10662;DHT22;5379;51.034;7.006;2023-04-02T12:25:02;9.50;99.90
10662;DHT22;5379;51.034;7.006;2023-04-02T12:27:29;9.40;99.90
10662;DHT22;5379;51.034;7.006;2023-04-02T12:30:11;9.40;99.90
10662;DHT22;5379;51.034;7.006;2023-04-02T12:32:39;9.50;99.90
10662;DHT22;5379;51.034;7.006;2023-04-02T12:35:26;9.30;99.90
10662;DHT22;5379;51.034;7.006;2023-04-02T12:37:53;9.30;99.90
10662;DHT22;5379;51.034;7.006;2023-04-02T12:40:24;9.10;99.90
10662;DHT22;5379;51.034;7.006;2023-04-02T12:42:51;9.20;99.90
10662;DHT22;5379;51.034;7.006;2023-04-02T12:45:22;10.10;99.90
10662;DHT22;5379;51.034;7.006;2023-04-02T12:47:50;10.00;99.90
10662;DHT22;5379;51.034;7.006;2023-04-02T12:50:19;10.00;99.90
10662;DHT22;5379;51.034;7.006;2023-04-02T12:52:49;9.90;99.90
10662;DHT22;5379;51.034;7.006;2023-04-02T12:55:19;10.00;99.90
10662;DHT22;5379;51.034;7.006;2023-04-02T12:57:48;9.70;99.90
10662;DHT22;5379;51.034;7.006;2023-04-02T13:00:34;9.80;99.90
10662;DHT22;5379;51.034;7.006;2023-04-02T13:03:17;9.70;99.90
10662;DHT22;5379;51.034;7.006;2023-04-02T13:05:52;10.20;99.90
10662;DHT22;5379;51.034;7.006;2023-04-02T13:08:24;10.10;99.90
10662;DHT22;5379;51.034;7.006;2023-04-02T13:10:54;9.70;99.90
10662;DHT22;5379;51.034;7.006;2023-04-02T13:13:25;9.90;99.90
10662;DHT22;5379;51.034;7.006;2023-04-02T13:16:01;10.10;99.90
10662;DHT22;5379;51.034;7.006;2023-04-02T13:18:30;10.10;99.90
10662;DHT22;5379;51.034;7.006;2023-04-02T13:20:59;10.20;99.90
10662;DHT22;5379;51.034;7.006;2023-04-02T13:23:33;10.30;99.90
10662;DHT22;5379;51.034;7.006;2023-04-02T13:26:04;10.20;99.90
10662;DHT22;5379;51.034;7.006;2023-04-02T13:28:36;10.20;99.90
10662;DHT22;5379;51.034;7.006;2023-04-02T13:31:03;10.40;99.90
10662;DHT22;5379;51.034;7.006;2023-04-02T13:33:30;10.40;99.90
10662;DHT22;5379;51.034;7.006;2023-04-02T13:35:57;10.40;99.90
10662;DHT22;5379;51.034;7.006;2023-04-02T13:38:25;10.30;99.90
10662;DHT22;5379;51.034;7.006;2023-04-02T13:40:51;10.50;99.90
10662;DHT22;5379;51.034;7.006;2023-04-02T13:43:19;10.50;99.90
10662;DHT22;5379;51.034;7.006;2023-04-02T13:45:49;10.40;99.90
10662;DHT22;5379;51.034;7.006;2023-04-02T13:48:17;10.40;99.90
10662;DHT22;5379;51.034;7.006;2023-04-02T13:50:44;10.50;99.90
10662;DHT22;5379;51.034;7.006;2023-04-02T13:53:18;10.40;99.90
10662;DHT22;5379;51.034;7.006;2023-04-02T13:55:46;10.30;99.90
10662;DHT22;5379;51.034;7.006;2023-04-02T13:58:14;10.40;99.90
10662;DHT22;5379;51.034;7.006;2023-04-02T14:00:42;10.10;99.90
10662;DHT22;5379;51.034;7.006;2023-04-02T14:03:13;9.80;99.90
10662;DHT22;5379;51.034;7.006;2023-04-02T14:05:49;9.90;99.90
10662;DHT22;5379;51.034;7.006;2023-04-02T14:08:22;9.80;99.90
10662;DHT22;5379;51.034;7.006;2023-04-02T14:11:02;10.20;99.90
10662;DHT22;5379;51.034;7.006;2023-04-02T14:13:46;9.90;99.90
10662;DHT22;5379;51.034;7.006;2023-04-02T14:16:30;9.70;99.90
10662;DHT22;5379;51.034;7.006;2023-04-02T14:19:17;9.40;99.90
10662;DHT22;5379;51.034;7.006;2023-04-02T14:21:53;9.50;99.90
10662;DHT22;5379;51.034;7.006;2023-04-02T14:24:27;9.60;99.90
10662;DHT22;5379;51.034;7.006;2023-04-02T14:27:15;9.40;99.90
10662;DHT22;5379;51.034;7.006;2023-04-02T14:29:49;9.70;99.90
10662;DHT22;5379;51.034;7.006;2023-04-02T14:32:21;10.10;99.90
10662;DHT22;5379;51.034;7.006;2023-04-02T14:34:56;9.90;99.90
10662;DHT22;5379;51.034;7.006;2023-04-02T14:37:32;10.30;99.90
10662;DHT22;5379;51.034;7.006;2023-04-02T14:40:09;11.10;99.80
10662;DHT22;5379;51.034;7.006;2023-04-02T14:42:41;11.60;99.80
10662;DHT22;5379;51.034;7.006;2023-04-02T14:45:17;10.50;99.00
10662;DHT22;5379;51.034;7.006;2023-04-02T14:47:53;9.60;99.80
10662;DHT22;5379;51.034;7.006;2023-04-02T14:50:26;9.60;99.90
10662;DHT22;5379;51.034;7.006;2023-04-02T14:52:58;10.00;99.60
10662;DHT22;5379;51.034;7.006;2023-04-02T14:55:34;9.90;99.90
10662;DHT22;5379;51.034;7.006;2023-04-02T14:58:07;9.60;99.70
10662;DHT22;5379;51.034;7.006;2023-04-02T15:00:38;9.40;99.90
10662;DHT22;5379;51.034;7.006;2023-04-02T15:03:11;9.60;99.90
10662;DHT22;5379;51.034;7.006;2023-04-02T15:05:43;10.00;99.90
10662;DHT22;5379;51.034;7.006;2023-04-02T15:08:17;10.60;99.40
10662;DHT22;5379;51.034;7.006;2023-04-02T15:10:53;10.30;99.60
10662;DHT22;5379;51.034;7.006;2023-04-02T15:13:26;9.70;99.80
10662;DHT22;5379;51.034;7.006;2023-04-02T15:15:57;10.40;98.90
10662;DHT22;5379;51.034;7.006;2023-04-02T15:18:29;10.00;98.30
10662;DHT22;5379;51.034;7.006;2023-04-02T15:21:05;9.60;99.30
10662;DHT22;5379;51.034;7.006;2023-04-02T15:23:44;10.00;99.30
10662;DHT22;5379;51.034;7.006;2023-04-02T15:26:18;10.00;98.30
10662;DHT22;5379;51.034;7.006;2023-04-02T15:28:52;9.90;99.00
10662;DHT22;5379;51.034;7.006;2023-04-02T15:31:24;9.70;98.80
10662;DHT22;5379;51.034;7.006;2023-04-02T15:33:57;9.70;99.50
10662;DHT22;5379;51.034;7.006;2023-04-02T15:36:40;9.50;98.70
10662;DHT22;5379;51.034;7.006;2023-04-02T15:39:31;9.30;99.10
10662;DHT22;5379;51.034;7.006;2023-04-02T15:42:09;9.40;99.10
10662;DHT22;5379;51.034;7.006;2023-04-02T15:44:43;9.00;98.50
10662;DHT22;5379;51.034;7.006;2023-04-02T15:47:19;9.20;99.20
10662;DHT22;5379;51.034;7.006;2023-04-02T15:49:55;9.00;98.30
10662;DHT22;5379;51.034;7.006;2023-04-02T15:52:35;9.00;98.70
10662;DHT22;5379;51.034;7.006;2023-04-02T15:55:13;9.40;99.20
10662;DHT22;5379;51.034;7.006;2023-04-02T15:57:59;10.00;97.30
10662;DHT22;5379;51.034;7.006;2023-04-02T16:00:29;9.20;97.60
10662;DHT22;5379;51.034;7.006;2023-04-02T16:03:19;9.40;97.50
10662;DHT22;5379;51.034;7.006;2023-04-02T16:06:19;9.50;97.20
10662;DHT22;5379;51.034;7.006;2023-04-02T16:09:01;9.40;98.10
10662;DHT22;5379;51.034;7.006;2023-04-02T16:11:29;8.90;97.70
10662;DHT22;5379;51.034;7.006;2023-04-02T16:14:01;9.50;99.20
10662;DHT22;5379;51.034;7.006;2023-04-02T16:16:35;9.20;97.60
10662;DHT22;5379;51.034;7.006;2023-04-02T16:19:11;9.40;98.00
10662;DHT22;5379;51.034;7.006;2023-04-02T16:21:44;9.80;97.60
10662;DHT22;5379;51.034;7.006;2023-04-02T16:24:15;10.40;97.30
10662;DHT22;5379;51.034;7.006;2023-04-02T16:26:48;10.40;96.00
10662;DHT22;5379;51.034;7.006;2023-04-02T16:29:28;10.30;96.80
10662;DHT22;5379;51.034;7.006;2023-04-02T16:32:03;10.50;96.00
10662;DHT22;5379;51.034;7.006;2023-04-02T16:34:38;10.60;96.10
10662;DHT22;5379;51.034;7.006;2023-04-02T16:37:13;10.70;95.80
10662;DHT22;5379;51.034;7.006;2023-04-02T16:39:49;10.90;96.10
10662;DHT22;5379;51.034;7.006;2023-04-02T16:42:26;11.20;95.40
10662;DHT22;5379;51.034;7.006;2023-04-02T16:45:07;11.40;95.50
10662;DHT22;5379;51.034;7.006;2023-04-02T16:47:51;11.50;95.30
10662;DHT22;5379;51.034;7.006;2023-04-02T16:50:29;11.60;95.20
10662;DHT22;5379;51.034;7.006;2023-04-02T16:53:04;11.70;95.80
10662;DHT22;5379;51.034;7.006;2023-04-02T16:55:44;11.30;94.50
10662;DHT22;5379;51.034;7.006;2023-04-02T16:58:25;11.40;95.50
10662;DHT22;5379;51.034;7.006;2023-04-02T17:00:56;11.50;95.20
10662;DHT22;5379;51.034;7.006;2023-04-02T17:06:30;11.80;95.90
10662;DHT22;5379;51.034;7.006;2023-04-02T17:09:04;11.90;95.40
10662;DHT22;5379;51.034;7.006;2023-04-02T17:11:39;11.90;95.50
10662;DHT22;5379;51.034;7.006;2023-04-02T17:14:17;11.80;95.00
10662;DHT22;5379;51.034;7.006;2023-04-02T17:16:50;11.80;95.20
10662;DHT22;5379;51.034;7.006;2023-04-02T17:19:18;11.90;94.80
10662;DHT22;5379;51.034;7.006;2023-04-02T17:21:47;11.50;94.40
10662;DHT22;5379;51.034;7.006;2023-04-02T17:24:22;11.60;94.90
10662;DHT22;5379;51.034;7.006;2023-04-02T17:26:53;11.50;95.30
10662;DHT22;5379;51.034;7.006;2023-04-02T17:29:26;11.40;94.70
10662;DHT22;5379;51.034;7.006;2023-04-02T17:31:58;11.30;95.10
10662;DHT22;5379;51.034;7.006;2023-04-02T17:34:26;11.10;94.20
10662;DHT22;5379;51.034;7.006;2023-04-02T17:36:59;11.00;94.80
10662;DHT22;5379;51.034;7.006;2023-04-02T17:39:32;10.80;95.40
10662;DHT22;5379;51.034;7.006;2023-04-02T17:42:12;10.50;95.20
10662;DHT22;5379;51.034;7.006;2023-04-02T17:44:55;11.00;95.70
10662;DHT22;5379;51.034;7.006;2023-04-02T17:47:33;10.90;95.40
10662;DHT22;5379;51.034;7.006;2023-04-02T17:53:15;11.40;95.40
10662;DHT22;5379;51.034;7.006;2023-04-02T17:55:56;10.90;94.40
10662;DHT22;5379;51.034;7.006;2023-04-02T17:58:44;10.50;94.80
10662;DHT22;5379;51.034;7.006;2023-04-02T18:01:19;10.10;94.80
10662;DHT22;5379;51.034;7.006;2023-04-02T18:03:53;9.80;96.10
10662;DHT22;5379;51.034;7.006;2023-04-02T18:06:28;10.00;95.10
10662;DHT22;5379;51.034;7.006;2023-04-02T18:09:06;10.10;95.40
10662;DHT22;5379;51.034;7.006;2023-04-02T18:11:44;10.00;95.30
10662;DHT22;5379;51.034;7.006;2023-04-02T18:14:27;9.90;96.00
10662;DHT22;5379;51.034;7.006;2023-04-02T18:17:02;11.00;97.40
10662;DHT22;5379;51.034;7.006;2023-04-02T18:19:34;11.20;94.40
10662;DHT22;5379;51.034;7.006;2023-04-02T18:22:10;11.10;94.30
10662;DHT22;5379;51.034;7.006;2023-04-02T18:24:49;11.40;94.10
10662;DHT22;5379;51.034;7.006;2023-04-02T18:27:37;11.20;94.10
10662;DHT22;5379;51.034;7.006;2023-04-02T18:30:16;11.20;93.80
10662;DHT22;5379;51.034;7.006;2023-04-02T18:33:05;11.00;93.40
10662;DHT22;5379;51.034;7.006;2023-04-02T18:35:34;11.50;93.90
10662;DHT22;5379;51.034;7.006;2023-04-02T18:38:22;10.80;93.70
10662;DHT22;5379;51.034;7.006;2023-04-02T18:41:01;10.30;95.30
10662;DHT22;5379;51.034;7.006;2023-04-02T18:43:40;10.10;93.70
10662;DHT22;5379;51.034;7.006;2023-04-02T18:46:19;10.30;94.90
10662;DHT22;5379;51.034;7.006;2023-04-02T18:48:53;10.10;93.70
10662;DHT22;5379;51.034;7.006;2023-04-02T18:51:24;9.70;94.80
10662;DHT22;5379;51.034;7.006;2023-04-02T18:53:57;9.40;94.80
10662;DHT22;5379;51.034;7.006;2023-04-02T18:56:29;9.40;95.10
10662;DHT22;5379;51.034;7.006;2023-04-02T18:59:05;9.10;95.30
10662;DHT22;5379;51.034;7.006;2023-04-02T19:01:39;9.20;95.70
10662;DHT22;5379;51.034;7.006;2023-04-02T19:04:11;9.60;95.70
10662;DHT22;5379;51.034;7.006;2023-04-02T19:06:42;9.40;95.40
10662;DHT22;5379;51.034;7.006;2023-04-02T19:09:13;9.50;95.30
10662;DHT22;5379;51.034;7.006;2023-04-02T19:11:40;9.60;95.70
10662;DHT22;5379;51.034;7.006;2023-04-02T19:14:11;9.70;95.20
10662;DHT22;5379;51.034;7.006;2023-04-02T19:16:47;9.70;95.80
10662;DHT22;5379;51.034;7.006;2023-04-02T19:19:19;9.70;96.10
10662;DHT22;5379;51.034;7.006;2023-04-02T19:22:01;9.80;95.10
10662;DHT22;5379;51.034;7.006;2023-04-02T19:24:43;9.80;95.70
10662;DHT22;5379;51.034;7.006;2023-04-02T19:27:18;9.70;95.50
10662;DHT22;5379;51.034;7.006;2023-04-02T19:29:59;10.00;95.00
10662;DHT22;5379;51.034;7.006;2023-04-02T19:32:35;9.80;95.30
10662;DHT22;5379;51.034;7.006;2023-04-02T19:35:09;9.70;95.50
10662;DHT22;5379;51.034;7.006;2023-04-02T19:37:42;9.60;95.80
10662;DHT22;5379;51.034;7.006;2023-04-02T19:40:18;9.60;95.90
10662;DHT22;5379;51.034;7.006;2023-04-02T19:42:48;9.60;96.10
10662;DHT22;5379;51.034;7.006;2023-04-02T19:45:32;9.70;95.90
10662;DHT22;5379;51.034;7.006;2023-04-02T19:48:09;9.60;95.70
10662;DHT22;5379;51.034;7.006;2023-04-02T19:50:37;9.40;95.60
10662;DHT22;5379;51.034;7.006;2023-04-02T19:53:04;9.30;95.70
10662;DHT22;5379;51.034;7.006;2023-04-02T19:55:31;9.20;96.20
10662;DHT22;5379;51.034;7.006;2023-04-02T19:57:58;9.20;96.00
10662;DHT22;5379;51.034;7.006;2023-04-02T20:00:25;9.20;96.00
10662;DHT22;5379;51.034;7.006;2023-04-02T20:02:52;9.20;96.10
10662;DHT22;5379;51.034;7.006;2023-04-02T20:05:20;9.20;96.40
10662;DHT22;5379;51.034;7.006;2023-04-02T20:07:47;9.10;95.90
10662;DHT22;5379;51.034;7.006;2023-04-02T20:10:14;9.30;96.30
10662;DHT22;5379;51.034;7.006;2023-04-02T20:12:41;9.30;95.60
10662;DHT22;5379;51.034;7.006;2023-04-02T20:15:09;9.40;95.70
10662;DHT22;5379;51.034;7.006;2023-04-02T20:17:36;9.80;95.20
10662;DHT22;5379;51.034;7.006;2023-04-02T20:20:04;9.70;94.80
10662;DHT22;5379;51.034;7.006;2023-04-02T20:22:32;9.70;95.50
10662;DHT22;5379;51.034;7.006;2023-04-02T20:24:59;9.70;95.80
10662;DHT22;5379;51.034;7.006;2023-04-02T20:27:26;9.70;95.60
10662;DHT22;5379;51.034;7.006;2023-04-02T20:29:53;9.30;95.40
10662;DHT22;5379;51.034;7.006;2023-04-02T20:32:20;9.20;96.00
10662;DHT22;5379;51.034;7.006;2023-04-02T20:34:47;9.10;95.90
10662;DHT22;5379;51.034;7.006;2023-04-02T20:37:14;10.60;96.60
10662;DHT22;5379;51.034;7.006;2023-04-02T20:39:43;9.10;96.30
10662;DHT22;5379;51.034;7.006;2023-04-02T20:42:10;9.00;96.30
10662;DHT22;5379;51.034;7.006;2023-04-02T20:44:38;8.90;96.20
10662;DHT22;5379;51.034;7.006;2023-04-02T20:47:05;8.90;96.50
10662;DHT22;5379;51.034;7.006;2023-04-02T20:49:33;8.80;96.50
10662;DHT22;5379;51.034;7.006;2023-04-02T20:51:59;8.70;96.60
10662;DHT22;5379;51.034;7.006;2023-04-02T20:56:55;8.40;97.00
10662;DHT22;5379;51.034;7.006;2023-04-02T20:59:22;8.40;97.20
10662;DHT22;5379;51.034;7.006;2023-04-02T21:01:49;8.40;97.10
10662;DHT22;5379;51.034;7.006;2023-04-02T21:04:16;8.40;97.20
10662;DHT22;5379;51.034;7.006;2023-04-02T21:06:43;8.40;97.20
10662;DHT22;5379;51.034;7.006;2023-04-02T21:09:14;8.40;97.50
10662;DHT22;5379;51.034;7.006;2023-04-02T21:11:41;8.30;97.60
10662;DHT22;5379;51.034;7.006;2023-04-02T21:14:10;8.20;97.50
10662;DHT22;5379;51.034;7.006;2023-04-02T21:16:38;8.10;97.40
10662;DHT22;5379;51.034;7.006;2023-04-02T21:19:07;8.10;97.80
10662;DHT22;5379;51.034;7.006;2023-04-02T21:21:36;8.10;97.80
10662;DHT22;5379;51.034;7.006;2023-04-02T21:24:04;8.10;98.00
10662;DHT22;5379;51.034;7.006;2023-04-02T21:26:33;8.00;97.90
10662;DHT22;5379;51.034;7.006;2023-04-02T21:29:00;8.00;98.40
10662;DHT22;5379;51.034;7.006;2023-04-02T21:31:31;8.00;98.40